Mansfield, Pennsylvania
Current Conditions -  °F | °C
As of 3:15 PM on Thursday 29 Jan 2015 (Local Time) from KN38 Reporting Station
Broken Clouds Broken Clouds  
Wind Chill:   Ceiling: 4300
Heat Index: 23°   Visibility: 8mi
Dew Point:   Wind: 23mph
Humidity: 46%   Direction: 190°S
Pressure: 29.85"   Gusts: 31mph
Location:  41.81°N, 77.08°W
Report Text: KN38 292015Z AUTO 19020G27KT 8SM FEW014 SCT028 BKN043 M05/M15 A2985 RMK AO2
Loading
Personal Weather Stations






























Interactive Weather Map New forecast layout! Learn more

10-Day Weather Forecast

Advertisements
Track Severe Weather on mobile